Time,TemperatureF,DewpointF,PressureIn,WindDirection,WindDirectionDegrees,WindSpeedMPH,WindSpeedGustMPH,Humidity,HourlyPrecipIn,Conditions,Clouds,dailyrainin,SoftwareType,DateUTC
2013-02-01 00:00:00,39.0,-11.0,27.34,SSW,195,7.2,7.2,11,0.00,,---,0.00,VWS V14.01,2013-02-01 05:00:00,
2013-02-01 00:01:00,39.0,-11.0,27.34,West,281,5.8,8.7,11,0.00,,---,0.00,VWS V14.01,2013-02-01 05:01:00,
2013-02-01 00:06:00,39.0,-11.0,27.34,ESE,122,5.4,5.4,11,0.00,,---,0.00,VWS V14.01,2013-02-01 05:06:00,
2013-02-01 00:11:00,38.8,-11.2,27.34,SSW,197,6.3,9.6,11,0.00,,---,0.00,VWS V14.01,2013-02-01 05:11:00,
2013-02-01 00:16:00,38.8,-11.2,27.34,SE,144,5.8,5.8,11,0.00,,---,0.00,VWS V14.01,2013-02-01 05:16:00,
2013-02-01 00:21:00,39.0,-11.0,27.34,NNE,29,2.2,2.7,11,0.00,,---,0.00,VWS V14.01,2013-02-01 05:21:00,
2013-02-01 00:26:00,39.0,-11.0,27.34,ESE,111,5.8,5.8,11,0.00,,---,0.00,VWS V14.01,2013-02-01 05:26:00,
2013-02-01 00:31:00,38.7,-11.3,27.34,SE,127,2.2,2.2,11,0.00,,---,0.00,VWS V14.01,2013-02-01 05:31:00,
2013-02-01 00:36:00,38.7,-11.3,27.34,North,0,3.1,3.1,11,0.00,,---,0.00,VWS V14.01,2013-02-01 05:36:00,
2013-02-01 00:41:00,38.5,-11.5,27.34,NW,308,9.6,9.6,11,0.00,,---,0.00,VWS V14.01,2013-02-01 05:41:00,
2013-02-01 00:46:00,38.8,-11.2,27.34,SSE,162,4.0,4.0,11,0.00,,---,0.00,VWS V14.01,2013-02-01 05:46:00,
2013-02-01 00:51:00,39.0,-11.0,27.34,SE,138,4.0,4.0,11,0.00,,---,0.00,VWS V14.01,2013-02-01 05:51:00,
2013-02-01 00:56:00,39.2,-10.9,27.34,WSW,244,3.6,12.8,11,0.00,,---,0.00,VWS V14.01,2013-02-01 05:56:00,
2013-02-01 01:01:00,39.4,-10.8,27.34,WSW,252,3.6,9.6,11,0.00,,---,0.00,VWS V14.01,2013-02-01 06:01:00,
2013-02-01 01:06:00,39.7,-10.5,27.34,WSW,241,8.3,8.3,11,0.00,,---,0.00,VWS V14.01,2013-02-01 06:06:00,
2013-02-01 01:11:00,39.7,-10.5,27.34,ESE,115,2.7,5.8,11,0.00,,---,0.00,VWS V14.01,2013-02-01 06:11:00,
2013-02-01 01:16:00,39.7,-10.5,27.34,NNE,30,4.9,5.8,11,0.00,,---,0.00,VWS V14.01,2013-02-01 06:16:00,
2013-02-01 01:20:00,39.6,-10.6,27.34,SE,143,5.4,7.6,11,0.00,,---,0.00,VWS V14.01,2013-02-01 06:20:00,
2013-02-01 01:25:00,39.7,-10.5,27.34,NW,309,10.1,12.3,11,0.00,,---,0.00,VWS V14.01,2013-02-01 06:25:00,
2013-02-01 01:30:00,39.9,-10.3,27.34,North,357,2.2,4.0,11,0.00,,---,0.00,VWS V14.01,2013-02-01 06:30:00,
2013-02-01 01:35:00,39.9,-10.3,27.34,WNW,300,7.2,7.2,11,0.00,,---,0.00,VWS V14.01,2013-02-01 06:35:00,
2013-02-01 01:40:00,39.9,-10.3,27.34,NW,313,5.8,11.0,11,0.00,,---,0.00,VWS V14.01,2013-02-01 06:40:00,
2013-02-01 01:45:00,39.9,-10.3,27.34,SW,232,4.0,6.3,11,0.00,,---,0.00,VWS V14.01,2013-02-01 06:45:00,
2013-02-01 01:50:00,40.1,-10.2,27.34,North,357,8.1,8.1,11,0.00,,---,0.00,VWS V14.01,2013-02-01 06:50:00,
2013-02-01 01:55:00,40.3,-10.1,27.34,WNW,302,5.8,8.7,11,0.00,,---,0.00,VWS V14.01,2013-02-01 06:55:00,
2013-02-01 02:00:00,40.3,-10.1,27.34,WNW,302,10.1,10.1,11,0.00,,---,0.00,VWS V14.01,2013-02-01 07:00:00,
2013-02-01 02:05:00,40.3,-10.1,27.34,SSW,201,5.4,8.1,11,0.00,,---,0.00,VWS V14.01,2013-02-01 07:05:00,
2013-02-01 02:10:00,40.5,-9.9,27.34,WSW,247,5.8,8.3,11,0.00,,---,0.00,VWS V14.01,2013-02-01 07:10:00,
2013-02-01 02:15:00,40.6,-9.8,27.34,West,262,8.7,11.4,11,0.00,,---,0.00,VWS V14.01,2013-02-01 07:15:00,
2013-02-01 02:20:00,40.5,-9.9,27.32,SW,229,6.3,6.3,11,0.00,,---,0.00,VWS V14.01,2013-02-01 07:20:00,
2013-02-01 02:25:00,40.5,-9.9,27.32,West,260,5.4,12.3,11,0.00,,---,0.00,VWS V14.01,2013-02-01 07:25:00,
2013-02-01 02:30:00,40.8,-9.6,27.32,NW,314,8.3,8.7,11,0.00,,---,0.00,VWS V14.01,2013-02-01 07:30:00,
2013-02-01 02:35:00,40.8,-9.6,27.32,ESE,121,2.7,13.2,11,0.00,,---,0.00,VWS V14.01,2013-02-01 07:35:00,
2013-02-01 02:40:00,41.0,-9.5,27.32,South,191,7.6,9.2,11,0.00,,---,0.00,VWS V14.01,2013-02-01 07:40:00,
2013-02-01 02:45:00,41.0,-9.5,27.32,NW,315,8.1,9.2,11,0.00,,---,0.00,VWS V14.01,2013-02-01 07:45:00,
2013-02-01 02:50:00,41.2,-9.3,27.29,ESE,103,5.8,5.8,11,0.00,,---,0.00,VWS V14.01,2013-02-01 07:50:00,
2013-02-01 02:55:00,41.0,-9.5,27.29,SW,231,8.3,8.7,11,0.00,,---,0.00,VWS V14.01,2013-02-01 07:55:00,
2013-02-01 03:00:00,41.0,-9.5,27.29,SE,140,8.1,8.1,11,0.00,,---,0.00,VWS V14.01,2013-02-01 08:00:00,
2013-02-01 03:05:00,40.8,-9.6,27.32,SW,222,5.4,10.5,11,0.00,,---,0.00,VWS V14.01,2013-02-01 08:05:00,
2013-02-01 03:10:00,40.8,-9.6,27.32,WNW,288,4.0,5.4,11,0.00,,---,0.00,VWS V14.01,2013-02-01 08:10:00,
2013-02-01 03:15:00,41.0,-9.5,27.32,WNW,299,14.5,14.5,11,0.00,,---,0.00,VWS V14.01,2013-02-01 08:15:00,
2013-02-01 03:20:00,41.2,-9.3,27.32,WNW,283,5.4,5.4,11,0.00,,---,0.00,VWS V14.01,2013-02-01 08:20:00,
2013-02-01 03:25:00,41.2,-9.3,27.32,South,170,8.3,8.3,11,0.00,,---,0.00,VWS V14.01,2013-02-01 08:25:00,
2013-02-01 03:30:00,41.2,-9.3,27.32,SSW,207,5.8,6.3,11,0.00,,---,0.00,VWS V14.01,2013-02-01 08:30:00,
2013-02-01 03:35:00,41.2,-9.3,27.32,South,178,6.3,6.3,11,0.00,,---,0.00,VWS V14.01,2013-02-01 08:35:00,
2013-02-01 03:40:00,41.0,-9.5,27.32,WSW,240,8.1,11.0,11,0.00,,---,0.00,VWS V14.01,2013-02-01 08:40:00,
2013-02-01 03:45:00,41.0,-9.5,27.32,ENE,74,2.7,5.8,11,0.00,,---,0.00,VWS V14.01,2013-02-01 08:45:00,
2013-02-01 03:50:00,41.0,-9.5,27.29,North,357,5.4,15.0,11,0.00,,---,0.00,VWS V14.01,2013-02-01 08:50:00,
2013-02-01 03:55:00,41.0,-9.5,27.29,NNW,342,5.4,10.1,11,0.00,,---,0.00,VWS V14.01,2013-02-01 08:55:00,
2013-02-01 04:00:00,40.8,-9.6,27.29,WNW,282,3.1,10.5,11,0.00,,---,0.00,VWS V14.01,2013-02-01 09:00:00,
2013-02-01 04:05:00,40.5,-9.9,27.32,WNW,298,3.6,10.1,11,0.00,,---,0.00,VWS V14.01,2013-02-01 09:05:00,
2013-02-01 04:10:00,39.9,-10.3,27.32,West,276,4.0,8.7,11,0.00,,---,0.00,VWS V14.01,2013-02-01 09:10:00,
2013-02-01 04:15:00,39.4,-10.8,27.32,SW,233,3.6,8.3,11,0.00,,---,0.00,VWS V14.01,2013-02-01 09:15:00,
2013-02-01 04:20:00,38.8,-11.2,27.32,NW,317,2.7,8.1,11,0.00,,---,0.00,VWS V14.01,2013-02-01 09:20:00,
2013-02-01 04:25:00,38.1,-11.8,27.32,North,353,5.4,5.4,11,0.00,,---,0.00,VWS V14.01,2013-02-01 09:25:00,
2013-02-01 04:30:00,37.2,-7.6,27.32,ESE,114,6.3,6.3,14,0.00,,---,0.00,VWS V14.01,2013-02-01 09:30:00,
2013-02-01 04:35:00,36.5,3.2,27.34,WSW,249,5.8,5.8,24,0.00,,---,0.00,VWS V14.01,2013-02-01 09:35:00,
2013-02-01 04:40:00,35.8,6.7,27.34,SSW,204,2.7,2.7,29,0.00,,---,0.00,VWS V14.01,2013-02-01 09:40:00,
2013-02-01 04:45:00,35.2,7.7,27.34,WSW,241,4.0,5.4,31,0.00,,---,0.00,VWS V14.01,2013-02-01 09:45:00,
2013-02-01 04:50:00,34.9,7.3,27.34,NNE,17,4.9,5.4,31,0.00,,---,0.00,VWS V14.01,2013-02-01 09:50:00,
2013-02-01 04:55:00,34.7,9.2,27.34,WSW,256,9.6,9.6,34,0.00,,---,0.00,VWS V14.01,2013-02-01 09:55:00,
2013-02-01 05:00:00,34.3,8.2,27.34,South,188,2.7,4.0,33,0.00,,---,0.00,VWS V14.01,2013-02-01 10:00:00,
2013-02-01 05:05:00,34.0,7.2,27.34,NE,47,4.0,5.8,32,0.00,,---,0.00,VWS V14.01,2013-02-01 10:05:00,
2013-02-01 05:10:00,34.0,7.2,27.34,SW,221,10.1,10.1,32,0.00,,---,0.00,VWS V14.01,2013-02-01 10:10:00,
2013-02-01 05:15:00,34.0,5.8,27.34,West,268,6.3,6.3,30,0.00,,---,0.00,VWS V14.01,2013-02-01 10:15:00,
2013-02-01 05:20:00,34.0,1.9,27.34,NNW,340,5.4,6.3,25,0.00,,---,0.00,VWS V14.01,2013-02-01 10:20:00,
2013-02-01 05:25:00,33.8,1.7,27.34,WNW,292,2.7,2.7,25,0.00,,---,0.00,VWS V14.01,2013-02-01 10:25:00,
2013-02-01 05:30:00,33.4,3.8,27.34,North,0,3.6,4.0,28,0.00,,---,0.00,VWS V14.01,2013-02-01 10:30:00,
2013-02-01 05:35:00,33.1,5.8,27.37,NW,310,2.2,4.0,31,0.00,,---,0.00,VWS V14.01,2013-02-01 10:35:00,
2013-02-01 05:40:00,33.1,5.8,27.37,SW,215,5.4,8.3,31,0.00,,---,0.00,VWS V14.01,2013-02-01 10:40:00,
2013-02-01 05:45:00,32.7,4.7,27.37,NNE,32,8.1,8.1,30,0.00,,---,0.00,VWS V14.01,2013-02-01 10:45:00,
2013-02-01 05:50:00,32.7,-1.0,27.37,SSW,205,3.6,3.6,23,0.00,,---,0.00,VWS V14.01,2013-02-01 10:50:00,
2013-02-01 05:55:00,32.4,-10.1,27.37,SE,134,3.1,8.3,15,0.00,,---,0.00,VWS V14.01,2013-02-01 10:55:00,
2013-02-01 06:00:00,32.2,-13.1,27.37,WSW,237,10.1,10.1,13,0.00,,---,0.00,VWS V14.01,2013-02-01 11:00:00,
2013-02-01 06:05:00,31.8,-13.4,27.37,SE,130,5.8,6.3,13,0.00,,---,0.00,VWS V14.01,2013-02-01 11:05:00,
2013-02-01 06:10:00,31.5,-13.7,27.37,SSW,212,4.0,4.9,13,0.00,,---,0.00,VWS V14.01,2013-02-01 11:10:00,
2013-02-01 06:15:00,31.1,-14.0,27.37,ESE,119,5.4,5.4,13,0.00,,---,0.00,VWS V14.01,2013-02-01 11:15:00,
2013-02-01 06:20:00,30.7,-14.3,27.40,East,96,3.6,5.4,13,0.00,,---,0.00,VWS V14.01,2013-02-01 11:20:00,
2013-02-01 06:25:00,30.2,-14.7,27.40,WSW,238,5.4,10.1,13,0.00,,---,0.00,VWS V14.01,2013-02-01 11:25:00,
2013-02-01 06:30:00,29.8,-15.0,27.40,NNW,330,3.6,8.7,13,0.00,,---,0.00,VWS V14.01,2013-02-01 11:30:00,
2013-02-01 06:35:00,29.5,-15.3,27.40,West,264,8.7,8.7,13,0.00,,---,0.00,VWS V14.01,2013-02-01 11:35:00,
2013-02-01 06:40:00,28.9,-15.7,27.40,SE,126,6.3,6.3,13,0.00,,---,0.00,VWS V14.01,2013-02-01 11:40:00,
2013-02-01 06:45:00,28.6,-16.0,27.40,WNW,294,0.0,8.3,13,0.00,,---,0.00,VWS V14.01,2013-02-01 11:45:00,
2013-02-01 06:50:00,28.2,-16.3,27.43,SSW,200,8.1,15.0,13,0.00,,---,0.00,VWS V14.01,2013-02-01 11:50:00,
2013-02-01 06:55:00,27.9,-16.6,27.43,SE,128,4.0,5.8,13,0.00,,---,0.00,VWS V14.01,2013-02-01 11:55:00,
2013-02-01 07:00:00,27.3,-18.6,27.43,WSW,238,3.6,8.3,12,0.00,,---,0.00,VWS V14.01,2013-02-01 12:00:00,
2013-02-01 07:05:00,27.0,-17.3,27.43,SE,142,2.2,5.4,13,0.00,,---,0.00,VWS V14.01,2013-02-01 12:05:00,
2013-02-01 07:10:00,26.8,-17.5,27.43,ESE,107,6.3,6.3,13,0.00,,---,0.00,VWS V14.01,2013-02-01 12:10:00,
2013-02-01 07:15:00,26.4,-17.8,27.43,WNW,291,2.7,4.0,13,0.00,,---,0.00,VWS V14.01,2013-02-01 12:15:00,
2013-02-01 07:20:00,26.1,-16.6,27.43,SSE,149,6.7,8.3,14,0.00,,---,0.00,VWS V14.01,2013-02-01 12:20:00,
2013-02-01 07:25:00,26.1,-18.0,27.43,SSE,156,3.6,5.8,13,0.00,,---,0.00,VWS V14.01,2013-02-01 12:25:00,
2013-02-01 07:30:00,25.9,-18.2,27.43,West,280,3.1,10.1,13,0.00,,---,0.00,VWS V14.01,2013-02-01 12:30:00,
2013-02-01 07:35:00,25.7,-18.3,27.46,SSE,147,3.1,6.3,13,0.00,,---,0.00,VWS V14.01,2013-02-01 12:35:00,
2013-02-01 07:40:00,25.5,-18.5,27.46,SE,129,8.3,8.3,13,0.00,,---,0.00,VWS V14.01,2013-02-01 12:40:00,
2013-02-01 07:45:00,25.5,-18.5,27.46,ENE,64,8.1,8.1,13,0.00,,---,0.00,VWS V14.01,2013-02-01 12:45:00,
2013-02-01 07:50:00,25.3,-18.6,27.46,SSE,153,5.8,7.6,13,0.00,,---,0.00,VWS V14.01,2013-02-01 12:50:00,
2013-02-01 07:55:00,25.2,-18.8,27.46,SSE,168,4.9,8.1,13,0.00,,---,0.00,VWS V14.01,2013-02-01 12:55:00,
2013-02-01 08:00:00,25.0,-18.9,27.46,NW,305,3.1,4.0,13,0.00,,---,0.00,VWS V14.01,2013-02-01 13:00:00,
2013-02-01 08:05:00,24.8,-19.1,27.49,NNW,337,10.5,15.0,13,0.00,,---,0.00,VWS V14.01,2013-02-01 13:05:00,
2013-02-01 08:10:00,24.6,-19.2,27.49,ESE,117,3.1,8.1,13,0.00,,---,0.00,VWS V14.01,2013-02-01 13:10:00,
2013-02-01 08:15:00,24.4,-19.4,27.49,SE,135,5.8,8.3,13,0.00,,---,0.00,VWS V14.01,2013-02-01 13:15:00,
2013-02-01 08:20:00,24.4,-19.4,27.49,South,181,8.7,8.7,13,0.00,,---,0.00,VWS V14.01,2013-02-01 13:20:00,
2013-02-01 08:25:00,24.3,-19.5,27.49,SSE,168,15.0,15.0,13,0.00,,---,0.00,VWS V14.01,2013-02-01 13:25:00,
2013-02-01 08:30:00,24.3,-19.5,27.49,ENE,67,4.0,8.1,13,0.00,,---,0.00,VWS V14.01,2013-02-01 13:30:00,
2013-02-01 08:35:00,24.3,-19.5,27.49,NNE,26,3.1,7.6,13,0.00,,---,0.00,VWS V14.01,2013-02-01 13:35:00,
2013-02-01 08:40:00,24.4,-19.4,27.49,SE,144,8.7,8.7,13,0.00,,---,0.00,VWS V14.01,2013-02-01 13:40:00,
2013-02-01 08:45:00,24.4,-19.4,27.49,WNW,303,3.1,4.0,13,0.00,,---,0.00,VWS V14.01,2013-02-01 13:45:00,
2013-02-01 08:50:00,24.4,-19.4,27.52,ENE,59,3.6,4.0,13,0.00,,---,0.00,VWS V14.01,2013-02-01 13:50:00,
2013-02-01 08:55:00,24.4,-19.4,27.52,NE,51,4.0,4.0,13,0.00,,---,0.00,VWS V14.01,2013-02-01 13:55:00,
2013-02-01 09:00:00,24.3,-19.5,27.52,SSE,159,2.7,5.4,13,0.00,,---,0.00,VWS V14.01,2013-02-01 14:00:00,
2013-02-01 09:05:00,24.4,-19.4,27.52,SW,225,2.7,7.2,13,0.00,,---,0.00,VWS V14.01,2013-02-01 14:05:00,
2013-02-01 09:10:00,24.6,-19.2,27.52,East,97,5.4,6.3,13,0.00,,---,0.00,VWS V14.01,2013-02-01 14:10:00,
2013-02-01 09:15:00,25.0,-18.9,27.52,ENE,78,6.3,6.3,13,0.00,,---,0.00,VWS V14.01,2013-02-01 14:15:00,
2013-02-01 09:20:00,25.3,-18.6,27.52,East,93,5.8,5.8,13,0.00,,---,0.00,VWS V14.01,2013-02-01 14:20:00,
2013-02-01 09:25:00,25.7,-18.3,27.52,SSE,155,4.9,6.3,13,0.00,,---,0.00,VWS V14.01,2013-02-01 14:25:00,
2013-02-01 09:30:00,25.9,-18.2,27.52,SE,138,2.2,6.3,13,0.00,,---,0.00,VWS V14.01,2013-02-01 14:30:00,
2013-02-01 09:35:00,25.9,-18.2,27.55,East,98,4.0,5.8,13,0.00,,---,0.00,VWS V14.01,2013-02-01 14:35:00,
2013-02-01 09:40:00,26.1,-18.0,27.55,SE,144,8.1,8.1,13,0.00,,---,0.00,VWS V14.01,2013-02-01 14:40:00,
2013-02-01 09:45:00,26.1,-18.0,27.55,North,350,3.1,5.4,13,0.00,,---,0.00,VWS V14.01,2013-02-01 14:45:00,
2013-02-01 09:50:00,26.1,-16.6,27.55,South,184,5.4,5.4,14,0.00,,---,0.00,VWS V14.01,2013-02-01 14:50:00,
2013-02-01 09:55:00,26.6,-16.2,27.55,SSE,154,4.5,4.5,14,0.00,,---,0.00,VWS V14.01,2013-02-01 14:55:00,
2013-02-01 10:00:00,27.1,-17.2,27.55,West,270,3.6,4.0,13,0.00,,---,0.00,VWS V14.01,2013-02-01 15:00:00,
2013-02-01 10:05:00,27.0,-17.3,27.55,West,268,4.0,4.0,13,0.00,,---,0.00,VWS V14.01,2013-02-01 15:05:00,
2013-02-01 10:10:00,27.0,-17.3,27.55,ESE,112,6.3,8.7,13,0.00,,---,0.00,VWS V14.01,2013-02-01 15:10:00,
2013-02-01 10:15:00,26.4,-17.8,27.55,South,174,6.3,7.6,13,0.00,,---,0.00,VWS V14.01,2013-02-01 15:15:00,
2013-02-01 10:20:00,26.4,-17.8,27.55,SSE,159,3.1,5.8,13,0.00,,---,0.00,VWS V14.01,2013-02-01 15:20:00,
2013-02-01 10:25:00,26.8,-17.5,27.55,SW,235,3.6,3.6,13,0.00,,---,0.00,VWS V14.01,2013-02-01 15:25:00,
2013-02-01 10:30:00,26.1,-18.0,27.55,North,7,5.4,5.4,13,0.00,,---,0.00,VWS V14.01,2013-02-01 15:30:00,
2013-02-01 10:35:00,26.1,-18.0,27.58,SE,139,7.2,8.7,13,0.00,,---,0.00,VWS V14.01,2013-02-01 15:35:00,
2013-02-01 10:40:00,26.1,-16.6,27.58,SE,133,4.0,4.0,14,0.00,,---,0.00,VWS V14.01,2013-02-01 15:40:00,
2013-02-01 10:45:00,26.4,-17.8,27.58,NNE,13,4.0,9.2,13,0.00,,---,0.00,VWS V14.01,2013-02-01 15:45:00,
2013-02-01 10:50:00,26.8,-19.0,27.58,NE,40,2.7,4.9,12,0.00,,---,0.00,VWS V14.01,2013-02-01 15:50:00,
2013-02-01 10:55:00,27.5,-16.9,27.58,NE,56,5.8,5.8,13,0.00,,---,0.00,VWS V14.01,2013-02-01 15:55:00,
2013-02-01 11:00:00,27.1,-17.2,27.58,NE,48,3.1,3.1,13,0.00,,---,0.00,VWS V14.01,2013-02-01 16:00:00,
2013-02-01 11:05:00,26.8,-19.0,27.58,WSW,249,5.8,8.1,12,0.00,,---,0.00,VWS V14.01,2013-02-01 16:05:00,
2013-02-01 11:10:00,26.4,-17.8,27.58,East,91,4.0,12.3,13,0.00,,---,0.00,VWS V14.01,2013-02-01 16:10:00,
2013-02-01 11:15:00,26.4,-17.8,27.58,WSW,239,3.1,4.0,13,0.00,,---,0.00,VWS V14.01,2013-02-01 16:15:00,
2013-02-01 11:20:00,26.6,-16.2,27.58,NNW,340,3.6,3.6,14,0.00,,---,0.00,VWS V14.01,2013-02-01 16:20:00,
2013-02-01 11:25:00,27.0,-17.3,27.58,North,1,5.4,5.8,13,0.00,,---,0.00,VWS V14.01,2013-02-01 16:25:00,
2013-02-01 11:30:00,27.0,-18.9,27.58,ENE,59,8.1,8.3,12,0.00,,---,0.00,VWS V14.01,2013-02-01 16:30:00,
2013-02-01 11:35:00,27.0,-17.3,27.58,South,180,3.6,4.0,13,0.00,,---,0.00,VWS V14.01,2013-02-01 16:35:00,
2013-02-01 11:40:00,27.7,-16.7,27.58,SW,221,7.2,7.2,13,0.00,,---,0.00,VWS V14.01,2013-02-01 16:40:00,
2013-02-01 11:45:00,28.2,-16.3,27.58,ESE,114,7.6,8.1,13,0.00,,---,0.00,VWS V14.01,2013-02-01 16:45:00,
2013-02-01 11:50:00,29.1,-15.6,27.58,SSE,155,8.1,11.0,13,0.00,,---,0.00,VWS V14.01,2013-02-01 16:50:00,
2013-02-01 11:55:00,29.7,-15.1,27.58,SE,133,5.4,8.1,13,0.00,,---,0.00,VWS V14.01,2013-02-01 16:55:00,
2013-02-01 12:00:00,30.0,-14.9,27.58,WSW,244,5.4,5.4,13,0.00,,---,0.00,VWS V14.01,2013-02-01 17:00:00,
2013-02-01 12:05:00,29.5,-15.3,27.58,East,99,4.5,5.8,13,0.00,,---,0.00,VWS V14.01,2013-02-01 17:05:00,
2013-02-01 12:10:00,30.6,-14.4,27.58,ENE,73,4.0,7.6,13,0.00,,---,0.00,VWS V14.01,2013-02-01 17:10:00,
2013-02-01 12:15:00,30.9,-14.1,27.58,ESE,103,8.1,8.1,13,0.00,,---,0.00,VWS V14.01,2013-02-01 17:15:00,
2013-02-01 12:20:00,31.1,-14.0,27.58,ENE,63,2.7,4.9,13,0.00,,---,0.00,VWS V14.01,2013-02-01 17:20:00,
2013-02-01 12:25:00,31.6,-13.6,27.58,SSW,207,2.7,4.9,13,0.00,,---,0.00,VWS V14.01,2013-02-01 17:25:00,
2013-02-01 12:30:00,31.6,-13.6,27.58,NW,304,5.8,6.3,13,0.00,,---,0.00,VWS V14.01,2013-02-01 17:30:00,
2013-02-01 12:35:00,31.3,-13.9,27.58,ESE,102,4.9,4.9,13,0.00,,---,0.00,VWS V14.01,2013-02-01 17:35:00,
2013-02-01 12:40:00,32.0,-13.3,27.58,ESE,116,5.4,5.4,13,0.00,,---,0.00,VWS V14.01,2013-02-01 17:40:00,
2013-02-01 12:45:00,32.2,-13.1,27.58,SE,142,6.3,7.6,13,0.00,,---,0.00,VWS V14.01,2013-02-01 17:45:00,
2013-02-01 12:50:00,32.4,-13.0,27.58,South,174,4.0,4.0,13,0.00,,---,0.00,VWS V14.01,2013-02-01 17:50:00,
2013-02-01 12:55:00,32.7,-12.7,27.58,WSW,254,3.6,4.0,13,0.00,,---,0.00,VWS V14.01,2013-02-01 17:55:00,
2013-02-01 13:00:00,32.9,-12.6,27.58,SW,227,2.7,3.1,13,0.00,,---,0.00,VWS V14.01,2013-02-01 18:00:00,
2013-02-01 13:05:00,32.9,-12.6,27.58,NE,50,3.1,4.0,13,0.00,,---,0.00,VWS V14.01,2013-02-01 18:05:00,
2013-02-01 13:10:00,33.1,-12.4,27.58,SE,127,4.0,5.8,13,0.00,,---,0.00,VWS V14.01,2013-02-01 18:10:00,
2013-02-01 13:15:00,33.3,-12.3,27.58,SE,126,3.6,4.0,13,0.00,,---,0.00,VWS V14.01,2013-02-01 18:15:00,
2013-02-01 13:20:00,33.1,-12.4,27.58,NW,307,2.7,2.7,13,0.00,,---,0.00,VWS V14.01,2013-02-01 18:20:00,
2013-02-01 13:25:00,33.4,-12.1,27.58,SW,218,3.1,4.9,13,0.00,,---,0.00,VWS V14.01,2013-02-01 18:25:00,
2013-02-01 13:30:00,33.4,-12.1,27.58,North,2,2.7,3.1,13,0.00,,---,0.00,VWS V14.01,2013-02-01 18:30:00,
2013-02-01 13:35:00,34.0,-13.3,27.58,SE,135,6.3,6.3,12,0.00,,---,0.00,VWS V14.01,2013-02-01 18:35:00,
2013-02-01 13:40:00,34.9,-12.6,27.58,SE,144,4.0,4.0,12,0.00,,---,0.00,VWS V14.01,2013-02-01 18:40:00,
2013-02-01 13:45:00,34.9,-12.6,27.58,NNW,340,3.1,3.1,12,0.00,,---,0.00,VWS V14.01,2013-02-01 18:45:00,
2013-02-01 13:50:00,34.2,-13.1,27.58,North,353,4.0,4.0,12,0.00,,---,0.00,VWS V14.01,2013-02-01 18:50:00,
2013-02-01 13:55:00,33.8,-13.4,27.58,SSE,152,3.6,5.4,12,0.00,,---,0.00,VWS V14.01,2013-02-01 18:55:00,
2013-02-01 14:00:00,34.2,-13.1,27.58,ESE,122,2.2,3.1,12,0.00,,---,0.00,VWS V14.01,2013-02-01 19:00:00,
2013-02-01 14:05:00,34.3,-13.0,27.58,SSW,194,3.6,4.0,12,0.00,,---,0.00,VWS V14.01,2013-02-01 19:05:00,
2013-02-01 14:10:00,34.5,-12.9,27.58,West,265,3.1,3.1,12,0.00,,---,0.00,VWS V14.01,2013-02-01 19:10:00,
2013-02-01 14:15:00,35.1,-12.4,27.58,WNW,294,4.9,4.9,12,0.00,,---,0.00,VWS V14.01,2013-02-01 19:15:00,
2013-02-01 14:20:00,35.2,-12.3,27.58,NNE,24,5.8,5.8,12,0.00,,---,0.00,VWS V14.01,2013-02-01 19:20:00,
2013-02-01 14:25:00,34.9,-12.6,27.58,SSE,151,2.7,3.6,12,0.00,,---,0.00,VWS V14.01,2013-02-01 19:25:00,
2013-02-01 14:30:00,34.7,-12.7,27.58,SW,224,4.0,4.0,12,0.00,,---,0.00,VWS V14.01,2013-02-01 19:30:00,
2013-02-01 14:35:00,33.6,-12.0,27.58,WSW,246,4.0,4.0,13,0.00,,---,0.00,VWS V14.01,2013-02-01 19:35:00,
2013-02-01 14:40:00,32.2,-13.1,27.58,ESE,122,2.7,3.6,13,0.00,,---,0.00,VWS V14.01,2013-02-01 19:40:00,
2013-02-01 14:45:00,32.4,-13.0,27.58,WSW,255,3.6,3.6,13,0.00,,---,0.00,VWS V14.01,2013-02-01 19:45:00,
2013-02-01 14:50:00,33.1,-12.4,27.58,SE,136,2.7,2.7,13,0.00,,---,0.00,VWS V14.01,2013-02-01 19:50:00,
2013-02-01 14:55:00,34.5,-12.9,27.58,SE,125,2.2,4.0,12,0.00,,---,0.00,VWS V14.01,2013-02-01 19:55:00,
2013-02-01 15:00:00,35.1,-12.4,27.58,NNE,32,5.4,6.3,12,0.00,,---,0.00,VWS V14.01,2013-02-01 20:00:00,
2013-02-01 15:05:00,34.7,-12.7,27.58,SE,131,0.0,0.0,12,0.00,,---,0.00,VWS V14.01,2013-02-01 20:05:00,
2013-02-01 15:10:00,35.8,-11.9,27.58,NW,319,2.7,3.1,12,0.00,,---,0.00,VWS V14.01,2013-02-01 20:10:00,
2013-02-01 15:15:00,35.4,-12.1,27.58,SSE,150,5.4,5.4,12,0.00,,---,0.00,VWS V14.01,2013-02-01 20:15:00,
2013-02-01 15:20:00,34.5,-12.9,27.58,West,266,0.0,3.1,12,0.00,,---,0.00,VWS V14.01,2013-02-01 20:20:00,
2013-02-01 15:25:00,34.2,-13.1,27.58,West,265,3.6,4.0,12,0.00,,---,0.00,VWS V14.01,2013-02-01 20:25:00,
2013-02-01 15:30:00,33.8,-13.4,27.58,WNW,283,5.4,5.4,12,0.00,,---,0.00,VWS V14.01,2013-02-01 20:30:00,
2013-02-01 15:35:00,34.3,-13.0,27.58,ESE,117,6.3,6.3,12,0.00,,---,0.00,VWS V14.01,2013-02-01 20:35:00,
2013-02-01 15:40:00,36.0,-11.7,27.58,NNE,20,0.0,0.0,12,0.00,,---,0.00,VWS V14.01,2013-02-01 20:40:00,
2013-02-01 15:45:00,37.0,-10.9,27.58,North,357,0.0,0.0,12,0.00,,---,0.00,VWS V14.01,2013-02-01 20:45:00,
2013-02-01 15:50:00,36.9,-11.0,27.61,East,88,3.1,3.1,12,0.00,,---,0.00,VWS V14.01,2013-02-01 20:50:00,
2013-02-01 15:55:00,36.1,-11.6,27.61,West,273,6.3,6.3,12,0.00,,---,0.00,VWS V14.01,2013-02-01 20:55:00,
2013-02-01 16:00:00,36.0,-11.7,27.61,SW,216,3.1,3.1,12,0.00,,---,0.00,VWS V14.01,2013-02-01 21:00:00,
2013-02-01 16:05:00,36.1,-11.6,27.58,NNE,26,4.0,4.0,12,0.00,,---,0.00,VWS V14.01,2013-02-01 21:05:00,
2013-02-01 16:10:00,34.9,-12.6,27.58,WSW,241,5.4,5.4,12,0.00,,---,0.00,VWS V14.01,2013-02-01 21:10:00,
2013-02-01 16:15:00,33.3,-12.3,27.58,ENE,62,2.7,2.7,13,0.00,,---,0.00,VWS V14.01,2013-02-01 21:15:00,
2013-02-01 16:20:00,32.7,-12.7,27.61,North,353,3.6,3.6,13,0.00,,---,0.00,VWS V14.01,2013-02-01 21:20:00,
2013-02-01 16:25:00,33.1,-12.4,27.61,North,350,2.7,2.7,13,0.00,,---,0.00,VWS V14.01,2013-02-01 21:25:00,
2013-02-01 16:30:00,32.7,-12.7,27.61,NNW,330,2.7,2.7,13,0.00,,---,0.00,VWS V14.01,2013-02-01 21:30:00,
2013-02-01 16:35:00,32.5,-12.8,27.61,NW,309,3.6,4.0,13,0.00,,---,0.00,VWS V14.01,2013-02-01 21:35:00,
2013-02-01 16:40:00,32.2,-13.1,27.61,SE,124,4.0,4.0,13,0.00,,---,0.00,VWS V14.01,2013-02-01 21:40:00,
2013-02-01 16:45:00,32.2,-13.1,27.61,NNE,23,5.8,5.8,13,0.00,,---,0.00,VWS V14.01,2013-02-01 21:45:00,
2013-02-01 16:50:00,31.1,-14.0,27.61,East,82,3.1,3.1,13,0.00,,---,0.00,VWS V14.01,2013-02-01 21:50:00,
2013-02-01 16:55:00,30.9,-14.1,27.61,SE,140,4.0,4.0,13,0.00,,---,0.00,VWS V14.01,2013-02-01 21:55:00,
2013-02-01 17:00:00,31.3,-13.9,27.61,SSE,147,2.2,3.1,13,0.00,,---,0.00,VWS V14.01,2013-02-01 22:00:00,
2013-02-01 17:05:00,31.1,-14.0,27.61,SSE,147,0.0,0.0,13,0.00,,---,0.00,VWS V14.01,2013-02-01 22:05:00,
2013-02-01 17:10:00,30.4,-14.6,27.61,SE,139,0.0,0.0,13,0.00,,---,0.00,VWS V14.01,2013-02-01 22:10:00,
2013-02-01 17:15:00,29.8,-15.0,27.61,SSW,198,2.7,2.7,13,0.00,,---,0.00,VWS V14.01,2013-02-01 22:15:00,
2013-02-01 17:20:00,28.9,-15.7,27.61,North,353,4.0,4.0,13,0.00,,---,0.00,VWS V14.01,2013-02-01 22:20:00,
2013-02-01 17:25:00,28.2,-17.9,27.61,SW,214,3.6,3.6,12,0.00,,---,0.00,VWS V14.01,2013-02-01 22:25:00,
2013-02-01 17:30:00,27.9,-18.2,27.61,WSW,251,0.0,0.0,12,0.00,,---,0.00,VWS V14.01,2013-02-01 22:30:00,
2013-02-01 17:35:00,27.7,-18.3,27.61,South,186,2.2,3.1,12,0.00,,---,0.00,VWS V14.01,2013-02-01 22:35:00,
2013-02-01 17:40:00,27.3,-18.6,27.61,SSE,166,0.0,0.0,12,0.00,,---,0.00,VWS V14.01,2013-02-01 22:40:00,
2013-02-01 17:45:00,27.1,-18.7,27.61,SE,139,0.0,0.0,12,0.00,,---,0.00,VWS V14.01,2013-02-01 22:45:00,
2013-02-01 17:50:00,27.1,-18.7,27.61,SE,139,0.0,0.0,12,0.00,,---,0.00,VWS V14.01,2013-02-01 22:50:00,
2013-02-01 17:55:00,27.0,-18.9,27.61,ENE,62,3.1,3.6,12,0.00,,---,0.00,VWS V14.01,2013-02-01 22:55:00,
2013-02-01 18:00:00,26.6,-17.6,27.61,SE,142,0.0,0.0,13,0.00,,---,0.00,VWS V14.01,2013-02-01 23:00:00,
2013-02-01 18:05:00,26.6,-17.6,27.61,West,281,0.0,0.0,13,0.00,,---,0.00,VWS V14.01,2013-02-01 23:05:00,
2013-02-01 18:10:00,26.2,-17.9,27.61,West,281,2.2,2.2,13,0.00,,---,0.00,VWS V14.01,2013-02-01 23:10:00,
2013-02-01 18:15:00,25.9,-18.2,27.61,NE,52,0.0,0.0,13,0.00,,---,0.00,VWS V14.01,2013-02-01 23:15:00,
2013-02-01 18:20:00,25.5,-18.5,27.61,WNW,300,3.1,3.1,13,0.00,,---,0.00,VWS V14.01,2013-02-01 23:20:00,
2013-02-01 18:25:00,25.3,-18.6,27.61,ESE,112,0.0,2.7,13,0.00,,---,0.00,VWS V14.01,2013-02-01 23:25:00,
2013-02-01 18:30:00,25.3,-18.6,27.61,WNW,290,2.7,2.7,13,0.00,,---,0.00,VWS V14.01,2013-02-01 23:30:00,
2013-02-01 18:35:00,25.2,-18.8,27.64,WNW,284,2.7,3.6,13,0.00,,---,0.00,VWS V14.01,2013-02-01 23:35:00,
2013-02-01 18:40:00,24.6,-19.2,27.64,West,276,0.0,2.2,13,0.00,,---,0.00,VWS V14.01,2013-02-01 23:40:00,
2013-02-01 18:45:00,24.4,-19.4,27.64,WNW,289,2.7,2.7,13,0.00,,---,0.00,VWS V14.01,2013-02-01 23:45:00,
2013-02-01 18:50:00,24.1,-19.6,27.64,West,271,2.7,2.7,13,0.00,,---,0.00,VWS V14.01,2013-02-01 23:50:00,
2013-02-01 18:55:00,23.9,-19.8,27.64,West,281,0.0,0.0,13,0.00,,---,0.00,VWS V14.01,2013-02-01 23:55:00,
2013-02-01 18:59:00,23.9,-19.8,27.64,NNW,342,2.7,5.4,13,0.00,,---,0.00,VWS V14.01,2013-02-01 23:59:00,
2013-02-01 19:04:00,23.9,-19.8,27.64,East,98,2.7,2.7,13,0.00,,---,0.00,VWS V14.01,2013-02-02 00:04:00,
2013-02-01 19:09:00,23.7,-19.9,27.64,NE,51,3.1,4.0,13,0.00,,---,0.00,VWS V14.01,2013-02-02 00:09:00,
2013-02-01 19:14:00,23.7,-19.9,27.64,NE,38,0.0,3.1,13,0.00,,---,0.00,VWS V14.01,2013-02-02 00:14:00,
2013-02-01 19:19:00,23.7,-19.9,27.64,NNE,25,2.7,3.6,13,0.00,,---,0.00,VWS V14.01,2013-02-02 00:19:00,
2013-02-01 19:24:00,23.5,-20.1,27.64,SE,126,3.1,3.1,13,0.00,,---,0.00,VWS V14.01,2013-02-02 00:24:00,
2013-02-01 19:29:00,23.5,-20.1,27.64,East,90,2.2,2.7,13,0.00,,---,0.00,VWS V14.01,2013-02-02 00:29:00,
2013-02-01 19:34:00,23.5,-20.1,27.64,NE,34,2.7,3.1,13,0.00,,---,0.00,VWS V14.01,2013-02-02 00:34:00,
2013-02-01 19:39:00,23.5,-20.1,27.64,NE,35,3.1,3.1,13,0.00,,---,0.00,VWS V14.01,2013-02-02 00:39:00,
2013-02-01 19:44:00,23.4,-20.2,27.64,North,8,5.4,5.8,13,0.00,,---,0.00,VWS V14.01,2013-02-02 00:44:00,
2013-02-01 19:49:00,23.2,-20.4,27.64,North,353,2.7,2.7,13,0.00,,---,0.00,VWS V14.01,2013-02-02 00:49:00,
2013-02-01 19:54:00,23.0,-19.1,27.64,WNW,287,2.7,2.7,14,0.00,,---,0.00,VWS V14.01,2013-02-02 00:54:00,
2013-02-01 20:00:00,22.8,-19.2,27.64,ESE,110,0.0,2.7,14,0.00,,---,0.00,VWS V14.01,2013-02-02 01:00:00,
2013-02-01 20:04:00,23.0,-19.1,27.64,NW,320,2.7,4.0,14,0.00,,---,0.00,VWS V14.01,2013-02-02 01:04:00,
2013-02-01 20:09:00,22.8,-19.2,27.64,SW,224,2.2,4.0,14,0.00,,---,0.00,VWS V14.01,2013-02-02 01:09:00,
2013-02-01 20:14:00,22.8,-19.2,27.64,West,278,0.0,3.1,14,0.00,,---,0.00,VWS V14.01,2013-02-02 01:14:00,
2013-02-01 20:19:00,22.6,-19.4,27.64,West,273,3.1,3.1,14,0.00,,---,0.00,VWS V14.01,2013-02-02 01:19:00,
2013-02-01 20:24:00,22.6,-19.4,27.64,NNW,329,3.1,4.0,14,0.00,,---,0.00,VWS V14.01,2013-02-02 01:24:00,
2013-02-01 20:29:00,22.6,-19.4,27.64,West,266,2.2,3.6,14,0.00,,---,0.00,VWS V14.01,2013-02-02 01:29:00,
2013-02-01 20:34:00,22.3,-19.7,27.64,West,273,0.0,3.1,14,0.00,,---,0.00,VWS V14.01,2013-02-02 01:34:00,
2013-02-01 20:39:00,22.3,-19.7,27.67,West,270,2.7,2.7,14,0.00,,---,0.00,VWS V14.01,2013-02-02 01:39:00,
2013-02-01 20:44:00,22.1,-19.8,27.67,WNW,284,4.0,4.0,14,0.00,,---,0.00,VWS V14.01,2013-02-02 01:44:00,
2013-02-01 20:49:00,21.9,-20.0,27.67,West,259,2.7,3.1,14,0.00,,---,0.00,VWS V14.01,2013-02-02 01:49:00,
2013-02-01 20:54:00,21.9,-20.0,27.67,West,267,3.6,3.6,14,0.00,,---,0.00,VWS V14.01,2013-02-02 01:54:00,
2013-02-01 20:59:00,21.9,-20.0,27.67,West,268,2.7,2.7,14,0.00,,---,0.00,VWS V14.01,2013-02-02 01:59:00,
2013-02-01 21:04:00,21.9,-20.0,27.67,West,267,2.7,2.7,14,0.00,,---,0.00,VWS V14.01,2013-02-02 02:04:00,
2013-02-01 21:09:00,21.9,-20.0,27.67,West,268,2.2,3.1,14,0.00,,---,0.00,VWS V14.01,2013-02-02 02:09:00,
2013-02-01 21:14:00,21.7,-20.1,27.67,WNW,293,2.2,3.1,14,0.00,,---,0.00,VWS V14.01,2013-02-02 02:14:00,
2013-02-01 21:19:00,21.6,-20.3,27.67,WSW,250,2.2,2.2,14,0.00,,---,0.00,VWS V14.01,2013-02-02 02:19:00,
2013-02-01 21:24:00,21.6,-20.3,27.67,West,274,2.7,2.7,14,0.00,,---,0.00,VWS V14.01,2013-02-02 02:24:00,
2013-02-01 21:29:00,21.4,-20.4,27.67,West,272,0.0,0.0,14,0.00,,---,0.00,VWS V14.01,2013-02-02 02:29:00,
2013-02-01 21:34:00,21.4,-20.4,27.67,West,273,0.0,0.0,14,0.00,,---,0.00,VWS V14.01,2013-02-02 02:34:00,
2013-02-01 21:39:00,21.2,-20.5,27.67,NW,311,2.2,3.1,14,0.00,,---,0.00,VWS V14.01,2013-02-02 02:39:00,
2013-02-01 21:44:00,21.2,-20.5,27.67,WNW,298,2.7,2.7,14,0.00,,---,0.00,VWS V14.01,2013-02-02 02:44:00,
2013-02-01 21:49:00,21.2,-20.5,27.67,WNW,285,0.0,2.2,14,0.00,,---,0.00,VWS V14.01,2013-02-02 02:49:00,
2013-02-01 21:54:00,21.2,-20.5,27.67,SE,124,0.0,3.1,14,0.00,,---,0.00,VWS V14.01,2013-02-02 02:54:00,
2013-02-01 21:59:00,21.4,-20.4,27.67,SSE,166,2.7,5.4,14,0.00,,---,0.00,VWS V14.01,2013-02-02 02:59:00,
2013-02-01 22:04:00,21.4,-20.4,27.67,ENE,71,0.0,2.7,14,0.00,,---,0.00,VWS V14.01,2013-02-02 03:04:00,
2013-02-01 22:09:00,21.2,-20.5,27.67,SE,127,0.0,0.0,14,0.00,,---,0.00,VWS V14.01,2013-02-02 03:09:00,
2013-02-01 22:14:00,21.4,-20.4,27.67,ESE,103,3.1,3.1,14,0.00,,---,0.00,VWS V14.01,2013-02-02 03:14:00,
2013-02-01 22:19:00,21.2,-20.5,27.67,ESE,109,0.0,0.0,14,0.00,,---,0.00,VWS V14.01,2013-02-02 03:19:00,
2013-02-01 22:24:00,21.2,-20.5,27.67,SE,131,2.2,4.0,14,0.00,,---,0.00,VWS V14.01,2013-02-02 03:24:00,
2013-02-01 22:29:00,21.2,-20.5,27.67,NW,312,0.0,2.7,14,0.00,,---,0.00,VWS V14.01,2013-02-02 03:29:00,
2013-02-01 22:34:00,21.2,-20.5,27.67,SW,233,2.2,3.1,14,0.00,,---,0.00,VWS V14.01,2013-02-02 03:34:00,
2013-02-01 22:39:00,21.2,-20.5,27.67,ESE,116,3.6,3.6,14,0.00,,---,0.00,VWS V14.01,2013-02-02 03:39:00,
2013-02-01 22:44:00,21.2,-20.5,27.67,SSE,159,2.2,2.7,14,0.00,,---,0.00,VWS V14.01,2013-02-02 03:44:00,
2013-02-01 22:49:00,21.2,-20.5,27.67,East,85,0.0,4.0,14,0.00,,---,0.00,VWS V14.01,2013-02-02 03:49:00,
2013-02-01 22:54:00,21.0,-20.7,27.67,ENE,78,2.7,3.1,14,0.00,,---,0.00,VWS V14.01,2013-02-02 03:54:00,
2013-02-01 22:59:00,21.0,-20.7,27.67,East,91,0.0,0.0,14,0.00,,---,0.00,VWS V14.01,2013-02-02 03:59:00,
2013-02-01 23:04:00,21.0,-20.7,27.67,ENE,64,0.0,0.0,14,0.00,,---,0.00,VWS V14.01,2013-02-02 04:04:00,
2013-02-01 23:09:00,20.8,-20.8,27.67,East,79,2.2,2.7,14,0.00,,---,0.00,VWS V14.01,2013-02-02 04:09:00,
2013-02-01 23:14:00,20.8,-20.8,27.67,East,84,2.7,2.7,14,0.00,,---,0.00,VWS V14.01,2013-02-02 04:14:00,
2013-02-01 23:19:00,20.7,-21.0,27.67,SE,124,2.7,3.6,14,0.00,,---,0.00,VWS V14.01,2013-02-02 04:19:00,
2013-02-01 23:24:00,20.7,-21.0,27.67,SE,124,0.0,0.0,14,0.00,,---,0.00,VWS V14.01,2013-02-02 04:24:00,
2013-02-01 23:29:00,20.7,-21.0,27.67,ENE,71,3.1,3.1,14,0.00,,---,0.00,VWS V14.01,2013-02-02 04:29:00,
2013-02-01 23:34:00,20.7,-21.0,27.67,SE,125,2.7,2.7,14,0.00,,---,0.00,VWS V14.01,2013-02-02 04:34:00,
2013-02-01 23:39:00,20.7,-21.0,27.67,SE,126,2.2,2.2,14,0.00,,---,0.00,VWS V14.01,2013-02-02 04:39:00,
2013-02-01 23:44:00,20.7,-21.0,27.67,SE,126,0.0,0.0,14,0.00,,---,0.00,VWS V14.01,2013-02-02 04:44:00,
2013-02-01 23:49:00,20.7,-21.0,27.67,East,96,2.7,2.7,14,0.00,,---,0.00,VWS V14.01,2013-02-02 04:49:00,
2013-02-01 23:54:00,20.7,-21.0,27.67,ESE,119,0.0,0.0,14,0.00,,---,0.00,VWS V14.01,2013-02-02 04:54:00,
2013-02-01 23:59:00,20.7,-21.0,27.67,ESE,119,2.2,2.7,14,0.00,,---,0.00,VWS V14.01,2013-02-02 04:59:00,